Time;durP1;ratioP1;P1;durP2;ratioP2;P2;SDS_P1;SDS_P2;PMS_P1;PMS_P2;Temp;Humidity;BMP_temperature;BMP_pressure;BME280_temperature;BME280_humidity;BME280_pressure;Samples;Min_cycle;Max_cycle;Signal;HPM_P1;HPM_P2
2022/05/19 00:01:08;;;;;;;1.07;1.07;;;;;;;12.43;62.46;96309.19;5113397;28;20420;-55
2022/05/19 00:03:39;;;;;;;0.50;0.40;;;;;;;12.56;65.75;96322.84;5114217;28;20427;-55
2022/05/19 00:06:11;;;;;;;0.40;0.20;;;;;;;12.61;67.60;96314.09;5114040;28;20424;-55
2022/05/19 00:08:39;;;;;;;0.40;0.20;;;;;;;12.25;62.05;96318.38;5114425;28;20430;-55
2022/05/19 00:11:12;;;;;;;0.40;0.20;;;;;;;11.89;60.73;96300.56;5114254;28;21016;-55
2022/05/19 00:13:41;;;;;;;0.40;0.30;;;;;;;12.10;58.48;96318.25;5114149;28;20518;-55
2022/05/19 00:16:10;;;;;;;0.40;0.20;;;;;;;12.17;61.45;96320.72;5113676;28;20983;-55
2022/05/19 00:18:38;;;;;;;0.40;0.30;;;;;;;11.71;59.92;96308.91;5112140;28;20454;-55
2022/05/19 00:21:07;;;;;;;0.40;0.20;;;;;;;11.63;59.24;96314.63;5113721;28;20471;-55
2022/05/19 00:23:37;;;;;;;0.40;0.20;;;;;;;12.01;59.18;96314.47;5114286;28;20536;-55
2022/05/19 00:26:05;;;;;;;0.40;0.20;;;;;;;11.65;57.49;96262.06;5113705;28;20871;-55
2022/05/19 00:28:33;;;;;;;0.40;0.30;;;;;;;11.68;54.96;96322.66;5113550;28;20515;-55
2022/05/19 00:31:02;;;;;;;0.40;0.20;;;;;;;11.35;56.99;96289.94;5113192;28;20494;-55
2022/05/19 00:33:30;;;;;;;0.40;0.20;;;;;;;11.79;56.30;96311.13;5112489;28;20614;-55
2022/05/19 00:35:59;;;;;;;0.40;0.20;;;;;;;11.85;58.19;96321.50;5113746;28;20460;-55
2022/05/19 00:38:27;;;;;;;0.40;0.20;;;;;;;12.27;57.84;96318.91;5113803;28;20416;-55
2022/05/19 00:40:58;;;;;;;0.40;0.30;;;;;;;12.51;56.92;96325.47;5113573;28;20455;-55
2022/05/19 00:43:31;;;;;;;0.40;0.30;;;;;;;12.47;64.69;96339.56;5113750;28;20431;-55
2022/05/19 00:46:05;;;;;;;0.40;0.20;;;;;;;12.05;65.55;96281.03;5111239;28;20894;-55
2022/05/19 00:48:44;;;;;;;0.40;0.20;;;;;;;12.48;63.64;96347.25;5111737;28;20804;-55
2022/05/19 00:51:14;;;;;;;0.40;0.20;;;;;;;12.47;64.67;96353.63;5111792;28;20427;-55
2022/05/19 00:53:46;;;;;;;0.40;0.20;;;;;;;12.13;70.29;96322.28;5112699;28;20972;-55
2022/05/19 00:56:22;;;;;;;0.80;0.80;;;;;;;12.32;61.97;96332.25;5113132;28;20443;-55
2022/05/19 00:58:55;;;;;;;0.40;0.20;;;;;;;12.12;62.98;96350.69;5111861;28;20427;-55
2022/05/19 01:01:24;;;;;;;2.40;1.57;;;;;;;12.28;65.06;96347.13;5113008;28;20796;-55
2022/05/19 01:03:59;;;;;;;0.77;0.77;;;;;;;11.52;63.13;96344.78;5113386;28;20498;-55
2022/05/19 01:06:28;;;;;;;0.40;0.20;;;;;;;11.88;63.96;96339.63;5113367;28;20829;-55
2022/05/19 01:09:01;;;;;;;0.40;0.20;;;;;;;11.83;59.79;96347.53;5112033;28;20464;-55
2022/05/19 01:11:32;;;;;;;0.40;0.20;;;;;;;11.80;61.52;96348.03;5112316;28;20420;-55
2022/05/19 01:14:00;;;;;;;0.40;0.20;;;;;;;11.40;61.80;96297.16;5112425;28;21027;-54
2022/05/19 01:16:28;;;;;;;0.40;0.20;;;;;;;11.92;66.83;96371.78;5111492;28;20503;-55
2022/05/19 01:18:57;;;;;;;0.40;0.20;;;;;;;11.66;66.85;96317.59;5111780;28;20435;-54
2022/05/19 01:21:29;;;;;;;0.40;0.30;;;;;;;11.97;63.71;96377.13;5112585;28;20432;-55
2022/05/19 01:24:11;;;;;;;0.40;0.30;;;;;;;11.81;67.32;96372.75;5112655;28;20787;-55
2022/05/19 01:26:47;;;;;;;0.40;0.20;;;;;;;11.98;69.64;96371.59;5112626;28;21072;-55
2022/05/19 01:29:19;;;;;;;0.40;0.20;;;;;;;11.75;66.67;96320.63;5112777;28;20427;-55
2022/05/19 01:31:51;;;;;;;0.40;0.20;;;;;;;12.05;68.56;96374.03;5111639;28;20453;-55
2022/05/19 01:34:22;;;;;;;0.40;0.20;;;;;;;11.83;70.78;96368.78;5112767;28;20850;-55
2022/05/19 01:36:50;;;;;;;0.37;0.20;;;;;;;11.52;72.81;96374.78;5111218;28;20434;-55
2022/05/19 01:39:22;;;;;;;0.40;0.20;;;;;;;11.30;73.57;96380.13;5112817;28;20432;-55
2022/05/19 01:42:06;;;;;;;0.63;0.57;;;;;;;11.00;73.68;96376.28;5112471;28;20423;-55
2022/05/19 01:44:47;;;;;;;0.40;0.30;;;;;;;10.73;78.79;96371.69;5112444;28;20431;-55
2022/05/19 01:47:24;;;;;;;0.40;0.20;;;;;;;11.15;79.08;96374.63;5111491;28;21164;-55
2022/05/19 01:49:58;;;;;;;1.63;0.40;;;;;;;10.77;79.48;96289.81;5112437;28;20443;-55
2022/05/19 01:52:33;;;;;;;0.40;0.20;;;;;;;10.80;75.14;96377.59;5111244;28;20793;-55
2022/05/19 01:55:09;;;;;;;0.40;0.20;;;;;;;10.62;79.39;96361.19;5111817;28;20494;-55
2022/05/19 01:57:48;;;;;;;0.40;0.20;;;;;;;10.18;86.26;96387.56;5111956;28;20796;-55
2022/05/19 02:00:19;;;;;;;0.40;0.30;;;;;;;10.00;87.67;96382.44;5112777;28;20427;-55
2022/05/19 02:02:53;;;;;;;0.30;0.20;;;;;;;9.98;88.95;96387.19;5112470;28;20443;-55
2022/05/19 02:05:31;;;;;;;0.40;0.20;;;;;;;10.07;90.00;96388.38;5111197;28;20466;-55
2022/05/19 02:08:02;;;;;;;0.40;0.20;;;;;;;10.44;83.76;96380.81;5111399;28;20980;-55
2022/05/19 02:10:36;;;;;;;1.17;0.80;;;;;;;9.81;87.16;96372.31;5112474;28;20443;-55
2022/05/19 02:13:07;;;;;;;0.40;0.20;;;;;;;9.86;90.51;96394.38;5112128;28;20511;-55
2022/05/19 02:15:41;;;;;;;0.40;0.20;;;;;;;9.86;88.65;96380.34;5112130;28;20567;-55
2022/05/19 02:18:10;;;;;;;0.40;0.20;;;;;;;10.13;86.39;96394.59;5112219;28;20477;-55
2022/05/19 02:20:41;;;;;;;0.30;0.20;;;;;;;10.15;88.57;96401.28;5112139;28;20428;-55
2022/05/19 02:23:13;;;;;;;0.40;0.20;;;;;;;9.85;90.11;96408.66;5112221;28;20420;-55
2022/05/19 02:25:45;;;;;;;0.43;0.37;;;;;;;9.96;89.57;96376.03;5112261;28;20451;-55
2022/05/19 02:28:21;;;;;;;0.33;0.20;;;;;;;10.28;91.63;96367.56;5112387;28;20424;-55
2022/05/19 02:30:50;;;;;;;0.40;0.20;;;;;;;10.56;88.62;96396.63;5111013;28;20568;-55
2022/05/19 02:33:19;;;;;;;0.40;0.20;;;;;;;10.58;92.65;96397.16;5110632;28;20547;-55
2022/05/19 02:35:48;;;;;;;0.40;0.20;;;;;;;10.65;98.45;96397.81;5111786;28;20965;-55
2022/05/19 02:38:18;;;;;;;0.40;0.30;;;;;;;10.36;92.90;96343.31;5112068;28;20917;-55
2022/05/19 02:40:47;;;;;;;0.40;0.20;;;;;;;10.68;88.59;96394.66;5111758;28;20465;-55
2022/05/19 02:43:18;;;;;;;0.40;0.20;;;;;;;10.78;90.65;96400.13;5113787;28;20427;-55
2022/05/19 02:45:47;;;;;;;0.30;0.20;;;;;;;10.87;91.34;96398.66;5114225;28;20430;-55
2022/05/19 02:48:17;;;;;;;0.40;0.20;;;;;;;10.84;86.89;96394.66;5116010;28;20473;-55
2022/05/19 02:50:48;;;;;;;0.50;0.40;;;;;;;10.92;88.63;96403.22;5116011;28;20469;-55
2022/05/19 02:53:18;;;;;;;0.40;0.20;;;;;;;10.93;88.44;96405.63;5115849;28;20463;-55
2022/05/19 02:55:46;;;;;;;2.73;0.50;;;;;;;10.95;90.93;96419.47;5115886;28;20818;-55
2022/05/19 02:58:16;;;;;;;0.40;0.20;;;;;;;10.98;86.31;96410.22;5114803;28;20416;-55
2022/05/19 03:00:47;;;;;;;0.30;0.20;;;;;;;11.02;84.25;96413.97;5114467;28;20512;-55
2022/05/19 03:03:16;;;;;;;0.40;0.20;;;;;;;10.93;88.22;96410.94;5113834;28;20420;-55
2022/05/19 03:05:44;;;;;;;0.30;0.20;;;;;;;10.68;87.92;96366.31;5115574;28;20435;-55
2022/05/19 03:08:13;;;;;;;0.50;0.30;;;;;;;10.87;89.10;96408.47;5115968;28;20419;-55
2022/05/19 03:10:43;;;;;;;0.30;0.20;;;;;;;10.93;91.09;96421.53;5115310;28;20447;-55
2022/05/19 03:13:24;;;;;;;0.40;0.20;;;;;;;10.89;88.98;96406.38;5115299;28;20477;-55
2022/05/19 03:15:52;;;;;;;0.30;0.20;;;;;;;10.93;89.90;96423.41;5114740;28;20554;-55
2022/05/19 03:18:21;;;;;;;0.30;0.20;;;;;;;10.85;88.51;96427.28;5114984;28;20436;-55
2022/05/19 03:20:49;;;;;;;0.40;0.20;;;;;;;10.76;90.21;96418.13;5115418;28;20432;-55
2022/05/19 03:23:18;;;;;;;0.30;0.20;;;;;;;10.69;89.01;96413.00;5114580;28;21172;-54
2022/05/19 03:25:47;;;;;;;0.30;0.20;;;;;;;10.84;82.52;96430.97;5115095;28;20455;-54
2022/05/19 03:28:16;;;;;;;0.40;0.30;;;;;;;10.75;75.90;96433.22;5115077;28;20948;-54
2022/05/19 03:30:46;;;;;;;0.40;0.20;;;;;;;10.79;81.30;96444.16;5114935;28;20996;-54
2022/05/19 03:33:15;;;;;;;0.30;0.20;;;;;;;10.06;93.26;96449.56;5114839;28;20489;-54
2022/05/19 03:35:43;;;;;;;0.30;0.20;;;;;;;10.16;100.00;96450.56;5114891;28;20492;-54
2022/05/19 03:38:12;;;;;;;0.30;0.20;;;;;;;10.27;99.52;96451.53;5114767;28;20470;-55
2022/05/19 03:40:41;;;;;;;0.30;0.20;;;;;;;10.42;99.64;96467.72;5114692;28;20480;-55
2022/05/19 03:43:09;;;;;;;0.30;0.30;;;;;;;10.75;97.10;96461.63;5114694;28;20451;-55
2022/05/19 03:45:40;;;;;;;0.40;0.30;;;;;;;10.47;96.11;96459.03;5115064;28;20422;-55
2022/05/19 03:48:10;;;;;;;0.30;0.20;;;;;;;10.66;95.22;96477.13;5114614;28;20519;-55
2022/05/19 03:50:39;;;;;;;0.30;0.30;;;;;;;10.39;97.06;96475.34;5114915;27;20427;-55
2022/05/19 03:53:07;;;;;;;0.40;0.30;;;;;;;10.16;99.77;96474.41;5114314;28;20972;-55
2022/05/19 03:55:36;;;;;;;0.30;0.20;;;;;;;10.42;98.74;96490.75;5114577;28;20470;-55
2022/05/19 03:58:04;;;;;;;0.40;0.20;;;;;;;10.20;100.00;96457.00;5114515;28;20482;-55
2022/05/19 04:00:33;;;;;;;0.30;0.20;;;;;;;10.58;98.71;96476.69;5114493;28;20467;-55
2022/05/19 04:03:02;;;;;;;0.40;0.20;;;;;;;10.73;96.84;96479.59;5114705;28;20459;-55
2022/05/19 04:05:32;;;;;;;0.40;0.30;;;;;;;10.72;92.04;96446.19;5114711;28;20424;-55
2022/05/19 04:08:00;;;;;;;0.30;0.20;;;;;;;10.83;93.41;96463.84;5114338;28;20427;-55
2022/05/19 04:10:29;;;;;;;0.33;0.20;;;;;;;10.97;91.56;96481.03;5114310;28;20948;-55
2022/05/19 04:12:57;;;;;;;0.40;0.20;;;;;;;10.77;96.99;96483.38;5114319;28;20464;-55
2022/05/19 04:15:26;;;;;;;1.27;1.17;;;;;;;10.95;90.62;96472.53;5114179;28;20513;-55
2022/05/19 04:17:54;;;;;;;0.40;0.30;;;;;;;10.71;89.51;96421.50;5114510;28;20879;-55
2022/05/19 04:20:23;;;;;;;0.40;0.40;;;;;;;11.07;87.36;96477.72;5114060;28;20463;-55
2022/05/19 04:22:53;;;;;;;0.40;0.20;;;;;;;11.11;84.46;96481.50;5114245;28;20431;-55
2022/05/19 04:25:21;;;;;;;0.40;0.20;;;;;;;10.84;91.42;96476.88;5113307;28;20510;-56
2022/05/19 04:27:50;;;;;;;0.30;0.20;;;;;;;11.38;82.99;96475.22;5113739;28;20489;-55
2022/05/19 04:30:18;;;;;;;0.30;0.20;;;;;;;11.57;80.37;96473.09;5113068;28;20510;-56
2022/05/19 04:32:48;;;;;;;0.40;0.27;;;;;;;11.64;79.18;96480.91;5114008;28;20885;-56
2022/05/19 04:35:17;;;;;;;0.30;0.20;;;;;;;11.94;78.04;96473.31;5114027;28;20546;-56
2022/05/19 04:37:47;;;;;;;0.30;0.20;;;;;;;12.15;78.58;96463.66;5113391;28;20855;-56
2022/05/19 04:40:18;;;;;;;0.30;0.20;;;;;;;12.24;75.89;96462.19;5113200;28;20974;-56
2022/05/19 04:42:46;;;;;;;0.30;0.20;;;;;;;12.40;77.43;96467.38;5113375;28;20423;-56
2022/05/19 04:45:17;;;;;;;0.30;0.20;;;;;;;12.22;71.14;96448.34;5113431;28;20427;-56
2022/05/19 04:47:45;;;;;;;0.40;0.20;;;;;;;12.44;72.51;96468.50;5113632;28;20441;-56
2022/05/19 04:50:14;;;;;;;0.40;0.20;;;;;;;12.36;76.17;96471.59;5113134;28;20463;-56
2022/05/19 04:52:43;;;;;;;0.40;0.30;;;;;;;12.41;76.33;96455.69;5113475;28;20423;-56
2022/05/19 04:55:11;;;;;;;0.30;0.20;;;;;;;11.63;82.78;96458.84;5112730;28;20474;-56
2022/05/19 04:57:42;;;;;;;0.30;0.20;;;;;;;11.65;87.72;96459.38;5113317;28;20526;-56
2022/05/19 05:00:14;;;;;;;0.30;0.20;;;;;;;11.52;89.69;96475.69;5113246;28;20420;-56
2022/05/19 05:02:43;;;;;;;0.40;0.30;;;;;;;11.75;88.46;96474.66;5113028;28;20997;-55
2022/05/19 05:05:12;;;;;;;0.40;0.40;;;;;;;11.97;84.34;96470.13;5112522;28;20427;-56
2022/05/19 05:07:40;;;;;;;3.13;1.00;;;;;;;12.25;82.84;96464.56;5113124;28;20507;-56
2022/05/19 05:10:10;;;;;;;0.40;0.30;;;;;;;12.39;82.81;96441.06;5113383;28;20772;-55
2022/05/19 05:12:38;;;;;;;0.60;0.53;;;;;;;12.11;81.11;96471.34;5113031;28;20987;-55
2022/05/19 05:15:09;;;;;;;0.90;0.30;;;;;;;11.61;91.08;96393.75;5112966;28;20618;-58
2022/05/19 05:17:38;;;;;;;0.40;0.30;;;;;;;12.97;100.00;96464.91;5112618;28;20471;-57
2022/05/19 05:20:09;;;;;;;0.40;0.20;;;;;;;13.60;100.00;96458.66;5112875;28;20472;-57
2022/05/19 05:22:37;;;;;;;0.40;0.20;;;;;;;13.78;88.32;96465.38;5112823;28;20460;-57
2022/05/19 05:25:08;;;;;;;0.40;0.30;;;;;;;14.02;100.00;96382.00;5112858;28;20901;-57
2022/05/19 05:27:36;;;;;;;0.40;0.20;;;;;;;14.35;70.57;96452.75;5112620;28;20427;-60
2022/05/19 05:30:06;;;;;;;0.57;0.57;;;;;;;14.37;65.34;96450.59;5112809;28;20511;-58
2022/05/19 05:32:37;;;;;;;0.40;0.20;;;;;;;14.41;64.41;96449.03;5112605;28;20436;-56
2022/05/19 05:35:08;;;;;;;0.43;0.30;;;;;;;14.30;62.75;96423.38;5112661;28;20506;-55
2022/05/19 05:37:37;;;;;;;0.40;0.20;;;;;;;14.33;67.60;96454.88;5112658;28;20431;-55
2022/05/19 05:40:08;;;;;;;0.53;0.47;;;;;;;12.94;80.06;96461.97;5113010;28;20472;-55
2022/05/19 05:42:36;;;;;;;0.50;0.40;;;;;;;12.87;84.03;96440.09;5112491;28;20477;-55
2022/05/19 05:45:06;;;;;;;0.40;0.20;;;;;;;13.74;80.79;96457.09;5113084;28;20465;-56
2022/05/19 05:47:36;;;;;;;0.40;0.30;;;;;;;13.50;80.64;96463.13;5112400;28;20482;-55
2022/05/19 05:50:11;;;;;;;0.40;0.33;;;;;;;13.51;79.50;96451.41;5112950;28;20422;-55
2022/05/19 05:52:40;;;;;;;0.40;0.20;;;;;;;13.91;81.21;96456.91;5112236;28;20492;-56
2022/05/19 05:55:09;;;;;;;0.60;0.50;;;;;;;13.99;74.00;96387.88;5112454;28;21048;-56
2022/05/19 05:57:37;;;;;;;0.40;0.20;;;;;;;14.43;79.77;96459.41;5112396;28;20484;-56
2022/05/19 06:00:07;;;;;;;0.60;0.40;;;;;;;13.87;81.73;96461.13;5112504;28;20920;-56
2022/05/19 06:02:37;;;;;;;0.40;0.20;;;;;;;13.55;84.82;96455.97;5112338;28;20431;-56
2022/05/19 06:05:11;;;;;;;0.40;0.30;;;;;;;13.97;85.84;96461.97;5112280;28;20889;-56
2022/05/19 06:07:39;;;;;;;0.40;0.30;;;;;;;14.72;81.11;96459.72;5112202;28;20510;-56
2022/05/19 06:10:09;;;;;;;0.40;0.20;;;;;;;14.49;82.76;96455.69;5111750;28;20424;-56
2022/05/19 06:12:37;;;;;;;0.40;0.30;;;;;;;14.69;73.02;96421.03;5112299;28;20971;-57
2022/05/19 06:15:08;;;;;;;0.40;0.30;;;;;;;15.38;72.17;96460.44;5112442;28;20463;-56
2022/05/19 06:17:39;;;;;;;1.00;0.60;;;;;;;15.27;71.92;96457.78;5114186;28;21044;-57
2022/05/19 06:20:10;;;;;;;0.40;0.30;;;;;;;15.54;70.06;96456.66;5116291;28;20945;-57
2022/05/19 06:22:39;;;;;;;0.50;0.47;;;;;;;15.46;64.98;96388.53;5116578;28;20431;-57
2022/05/19 06:25:08;;;;;;;0.40;0.30;;;;;;;16.91;60.32;96452.94;5116509;28;20419;-57
2022/05/19 06:27:37;;;;;;;0.40;0.30;;;;;;;16.77;59.08;96369.00;5116233;28;20960;-57
2022/05/19 06:30:07;;;;;;;1.07;0.53;;;;;;;17.81;58.87;96436.97;5116229;28;20514;-57
2022/05/19 06:32:37;;;;;;;0.40;0.20;;;;;;;18.35;51.53;96431.94;5116531;28;20426;-59
2022/05/19 06:35:09;;;;;;;0.40;0.20;;;;;;;18.70;49.00;96424.47;5115977;28;20600;-58
2022/05/19 06:37:37;;;;;;;0.57;0.30;;;;;;;18.19;54.96;96395.69;5115925;28;20857;-58
2022/05/19 06:40:07;;;;;;;0.40;0.20;;;;;;;18.29;55.75;96426.97;5116006;28;20470;-58
2022/05/19 06:42:36;;;;;;;0.40;0.20;;;;;;;18.21;53.60;96430.28;5116026;28;20518;-57
2022/05/19 06:45:05;;;;;;;0.63;0.63;;;;;;;18.36;54.88;96416.66;5116226;27;20761;-58
2022/05/19 06:47:34;;;;;;;0.40;0.20;;;;;;;16.44;57.54;96378.59;5115938;28;20467;-58
2022/05/19 06:50:05;;;;;;;0.50;0.30;;;;;;;17.10;60.97;96424.34;5115693;28;20901;-58
2022/05/19 06:52:34;;;;;;;0.40;0.30;;;;;;;17.95;55.47;96427.16;5115689;28;20455;-57
2022/05/19 06:55:03;;;;;;;0.53;0.40;;;;;;;18.67;52.17;96415.09;5115884;28;20461;-58
2022/05/19 06:57:32;;;;;;;0.60;0.60;;;;;;;19.26;52.18;96417.03;5115499;28;20438;-58
2022/05/19 07:00:00;;;;;;;0.50;0.40;;;;;;;19.10;47.84;96394.22;5115631;28;20467;-58
2022/05/19 07:02:29;;;;;;;0.70;0.30;;;;;;;19.58;47.61;96416.19;5115730;28;20480;-58
2022/05/19 07:04:57;;;;;;;0.40;0.30;;;;;;;19.63;51.68;96389.19;5115589;28;20458;-58
2022/05/19 07:07:27;;;;;;;0.80;0.53;;;;;;;19.57;46.83;96409.22;5116009;28;20419;-59
2022/05/19 07:09:56;;;;;;;0.93;0.70;;;;;;;19.28;47.68;96379.09;5115366;28;20447;-59
2022/05/19 07:12:25;;;;;;;2.10;0.30;;;;;;;19.76;51.28;96352.63;5115432;28;20419;-59
2022/05/19 07:14:54;;;;;;;0.50;0.30;;;;;;;19.31;49.22;96295.16;5115502;28;20497;-58
2022/05/19 07:17:23;;;;;;;0.40;0.30;;;;;;;20.33;50.14;96396.84;5115596;28;20486;-58
2022/05/19 07:22:39;;;;;;;0.50;0.50;;;;;;;20.61;45.15;96385.66;5115096;28;20478;-57
2022/05/19 07:25:08;;;;;;;0.40;0.20;;;;;;;21.03;41.72;96394.31;5115449;28;20506;-57
2022/05/19 07:27:37;;;;;;;0.50;0.40;;;;;;;21.56;35.63;96349.19;5114578;28;20912;-57
2022/05/19 07:30:06;;;;;;;0.50;0.50;;;;;;;21.42;31.88;96341.22;5114955;28;20481;-56
2022/05/19 07:32:35;;;;;;;0.40;0.20;;;;;;;21.81;34.66;96380.03;5114997;28;20522;-56
2022/05/19 07:35:05;;;;;;;0.40;0.20;;;;;;;21.80;33.33;96364.97;5115352;28;20444;-55
2022/05/19 07:37:33;;;;;;;0.40;0.20;;;;;;;21.73;29.02;96337.66;5115085;28;20498;-55
2022/05/19 07:40:05;;;;;;;0.40;0.30;;;;;;;21.90;32.92;96370.09;5115249;28;20431;-55
2022/05/19 07:42:33;;;;;;;0.40;0.30;;;;;;;21.69;32.07;96212.56;5114907;28;20969;-55
2022/05/19 07:45:02;;;;;;;0.40;0.30;;;;;;;22.30;31.70;96358.06;5114954;28;20442;-56
2022/05/19 07:47:30;;;;;;;0.40;0.30;;;;;;;22.37;33.79;96331.34;5114827;28;20948;-57
2022/05/19 07:49:59;;;;;;;0.53;0.50;;;;;;;22.58;31.46;96364.72;5114882;28;20416;-57
2022/05/19 07:52:35;;;;;;;0.40;0.30;;;;;;;22.53;30.64;96372.97;5114609;28;20435;-57
2022/05/19 07:55:07;;;;;;;0.40;0.30;;;;;;;23.21;30.24;96360.44;5114627;28;20424;-58
2022/05/19 07:57:35;;;;;;;0.40;0.27;;;;;;;22.30;29.18;96181.69;5114338;27;21084;-58
2022/05/19 08:00:05;;;;;;;0.40;0.30;;;;;;;22.81;28.94;96362.63;5115008;28;20472;-58
2022/05/19 08:02:34;;;;;;;0.40;0.20;;;;;;;22.87;28.11;96364.03;5115283;28;20431;-57
2022/05/19 08:05:04;;;;;;;0.63;0.40;;;;;;;22.95;28.83;96309.16;5114759;28;20863;-57
2022/05/19 08:07:33;;;;;;;0.60;0.60;;;;;;;22.21;29.69;96351.88;5114940;28;20424;-58
2022/05/19 08:15:38;;;;;;;0.50;0.30;;;;;;;23.51;31.32;96291.72;5113976;28;20475;-58
2022/05/19 08:18:09;;;;;;;0.30;0.30;;;;;;;24.38;29.29;96346.88;5114051;28;20451;-58
2022/05/19 08:20:40;;;;;;;0.40;0.30;;;;;;;24.19;28.20;96341.13;5114073;28;20459;-58
2022/05/19 08:23:12;;;;;;;0.40;0.30;;;;;;;23.72;26.04;96316.13;5113651;28;20518;-58
2022/05/19 08:25:41;;;;;;;0.50;0.50;;;;;;;23.12;25.37;96340.75;5113856;28;20929;-58
2022/05/19 08:28:14;;;;;;;0.40;0.30;;;;;;;22.91;24.75;96337.16;5114219;28;20492;-58
2022/05/19 08:30:43;;;;;;;0.50;0.30;;;;;;;23.81;34.67;96324.97;5114070;28;20480;-57
2022/05/19 08:33:12;;;;;;;0.30;0.20;;;;;;;24.04;28.95;96318.13;5114110;28;20451;-56
2022/05/19 08:35:41;;;;;;;0.30;0.30;;;;;;;23.82;29.94;96265.09;5113935;28;20428;-57
2022/05/19 08:38:09;;;;;;;0.40;0.30;;;;;;;24.00;27.54;96336.97;5114052;28;20555;-57
2022/05/19 08:40:48;;;;;;;0.40;0.30;;;;;;;24.17;24.43;96327.13;5112579;28;20427;-57
2022/05/19 08:43:21;;;;;;;0.30;0.20;;;;;;;22.85;26.89;96328.44;5114181;28;20513;-57
2022/05/19 08:45:57;;;;;;;0.30;0.20;;;;;;;23.73;36.03;96267.06;5113551;28;20434;-58
2022/05/19 08:48:28;;;;;;;0.60;0.40;;;;;;;24.59;30.32;96317.84;5113508;28;20942;-58
2022/05/19 08:51:00;;;;;;;0.30;0.20;;;;;;;25.24;29.16;96316.97;5113727;28;20415;-58
2022/05/19 08:53:32;;;;;;;0.30;0.30;;;;;;;25.49;26.29;96318.59;5112826;28;20916;-58
2022/05/19 08:56:20;;;;;;;0.40;0.30;;;;;;;24.81;27.23;96260.53;5113252;28;20416;-58
2022/05/19 08:59:05;;;;;;;0.30;0.20;;;;;;;25.25;25.17;96264.28;5113309;28;20875;-58
2022/05/19 09:01:43;;;;;;;0.50;0.50;;;;;;;25.36;22.97;96273.56;5113395;28;20974;-58
2022/05/19 09:04:30;;;;;;;0.40;0.30;;;;;;;26.21;24.42;96293.25;5113813;28;20457;-58
2022/05/19 09:10:09;;;;;;;0.50;0.30;;;;;;;25.14;23.75;96298.44;5113126;28;20476;-58
2022/05/19 09:13:08;;;;;;;0.40;0.37;;;;;;;24.76;27.32;96274.28;5113053;28;20415;-60
2022/05/19 09:15:38;;;;;;;0.50;0.40;;;;;;;24.69;25.50;96287.59;5112942;28;20502;-59
2022/05/19 09:18:08;;;;;;;0.40;0.40;;;;;;;24.67;25.82;96257.31;5112847;28;20911;-59
2022/05/19 09:20:42;;;;;;;0.30;0.30;;;;;;;26.03;22.47;96258.53;5113130;28;20975;-59
2022/05/19 09:23:10;;;;;;;0.40;0.30;;;;;;;25.19;22.56;96163.34;5113110;28;20457;-59
2022/05/19 09:25:44;;;;;;;0.40;0.30;;;;;;;25.20;25.51;96191.25;5113259;28;20420;-60
2022/05/19 09:28:14;;;;;;;0.40;0.30;;;;;;;26.15;24.86;96215.81;5112741;28;20856;-59
2022/05/19 09:30:50;;;;;;;0.40;0.30;;;;;;;25.73;26.07;96239.00;5113059;28;20423;-59
2022/05/19 09:33:21;;;;;;;0.40;0.30;;;;;;;26.32;25.93;96220.16;5112998;28;20454;-59
2022/05/19 09:35:54;;;;;;;0.40;0.30;;;;;;;26.03;24.02;96272.91;5113022;28;20966;-59
2022/05/19 09:38:28;;;;;;;0.40;0.30;;;;;;;26.16;24.74;96132.38;5112518;28;20518;-59
2022/05/19 09:41:03;;;;;;;0.30;0.20;;;;;;;25.81;23.33;96200.06;5112630;28;20437;-59
2022/05/19 09:43:36;;;;;;;0.30;0.20;;;;;;;26.66;25.24;96252.16;5112790;28;20423;-59
2022/05/19 09:46:14;;;;;;;0.30;0.20;;;;;;;26.84;25.14;96204.44;5111994;28;20989;-58
2022/05/19 09:48:46;;;;;;;0.40;0.20;;;;;;;27.06;23.91;96243.84;5112434;28;20916;-59
2022/05/19 09:51:17;;;;;;;0.83;0.40;;;;;;;27.26;22.82;96241.97;5118049;28;20454;-58
2022/05/19 09:53:53;;;;;;;0.30;0.20;;;;;;;25.29;21.61;96094.22;5112912;28;20428;-59
2022/05/19 09:56:25;;;;;;;0.30;0.20;;;;;;;26.94;22.59;96173.22;5112504;28;20963;-59
2022/05/19 09:59:05;;;;;;;0.40;0.30;;;;;;;25.45;22.16;96187.38;5112648;28;20455;-59
2022/05/19 10:01:40;;;;;;;0.60;0.57;;;;;;;25.27;22.94;96224.03;5112621;28;20423;-59
2022/05/19 10:04:15;;;;;;;0.30;0.30;;;;;;;25.38;24.60;96230.56;5112387;28;20502;-60
2022/05/19 10:06:51;;;;;;;0.40;0.30;;;;;;;24.69;22.91;96137.69;5112575;28;20470;-59
2022/05/19 10:09:23;;;;;;;0.50;0.50;;;;;;;25.51;24.07;96217.81;5112759;28;20429;-58
2022/05/19 10:11:54;;;;;;;0.40;0.30;;;;;;;25.46;23.01;96209.91;5112275;28;20925;-59
2022/05/19 10:14:28;;;;;;;0.40;0.30;;;;;;;24.45;24.58;96209.72;5112202;28;20426;-59
2022/05/19 10:17:06;;;;;;;0.40;0.40;;;;;;;25.34;24.47;96210.69;5111840;28;20467;-59
2022/05/19 10:19:49;;;;;;;0.30;0.30;;;;;;;26.52;22.57;96153.06;5112902;28;20415;-58
2022/05/19 10:22:48;;;;;;;0.30;0.20;;;;;;;25.56;23.30;96076.38;5112245;28;20494;-59
2022/05/19 10:25:30;;;;;;;1.03;0.50;;;;;;;25.94;21.65;96133.69;5112138;28;20428;-59
2022/05/19 10:31:13;;;;;;;0.30;0.20;;;;;;;26.41;22.11;96158.28;5111933;28;20508;-58
2022/05/19 10:34:03;;;;;;;0.57;0.47;;;;;;;26.98;23.61;96187.66;5111735;28;20978;-59
2022/05/19 10:36:40;;;;;;;0.40;0.37;;;;;;;26.88;20.85;96180.03;5111715;28;20488;-59
2022/05/19 10:39:26;;;;;;;0.40;0.30;;;;;;;24.97;21.50;96166.50;5112193;28;20536;-59
2022/05/19 10:42:09;;;;;;;0.30;0.20;;;;;;;24.87;22.09;96058.47;5112383;28;20506;-59
2022/05/19 10:45:00;;;;;;;0.30;0.30;;;;;;;25.63;20.56;95986.97;5111889;28;20500;-59
2022/05/19 10:47:41;;;;;;;0.40;0.30;;;;;;;27.14;19.97;96153.06;5112074;28;20426;-59
2022/05/19 10:50:26;;;;;;;0.50;0.40;;;;;;;26.32;19.85;96146.75;5111932;28;21140;-59
2022/05/19 10:53:17;;;;;;;0.50;0.50;;;;;;;24.56;19.92;96145.81;5111811;28;20463;-59
2022/05/19 10:56:00;;;;;;;0.53;0.40;;;;;;;25.62;20.25;96161.91;5112049;28;20514;-59
2022/05/19 10:58:42;;;;;;;0.30;0.20;;;;;;;26.49;23.23;96146.41;5112078;28;20533;-59
2022/05/19 11:01:22;;;;;;;0.40;0.40;;;;;;;26.46;20.95;96156.06;5111738;28;20806;-59
2022/05/19 11:04:26;;;;;;;0.40;0.30;;;;;;;25.76;19.43;96089.75;5113775;28;20422;-59
2022/05/19 11:07:16;;;;;;;0.40;0.30;;;;;;;26.91;20.25;96116.78;5111081;28;20804;-59
2022/05/19 11:09:53;;;;;;;0.30;0.20;;;;;;;26.59;18.74;96098.91;5115537;28;20535;-58
2022/05/19 11:12:36;;;;;;;0.50;0.30;;;;;;;27.25;18.80;96135.03;5115423;28;20983;-58
2022/05/19 11:15:16;;;;;;;0.33;0.27;;;;;;;27.01;20.83;96102.63;5115320;28;20980;-59
2022/05/19 11:17:58;;;;;;;0.33;0.30;;;;;;;27.50;21.91;96051.94;5115570;28;20466;-58
2022/05/19 11:20:32;;;;;;;0.40;0.30;;;;;;;28.10;20.26;96101.38;5114743;28;20818;-58
2022/05/19 11:23:08;;;;;;;0.40;0.30;;;;;;;28.27;17.68;96130.88;5114994;28;20432;-58
2022/05/19 11:28:39;;;;;;;0.37;0.30;;;;;;;26.97;20.40;96118.06;5115385;28;20415;-58
2022/05/19 11:31:15;;;;;;;0.40;0.30;;;;;;;27.12;18.44;96133.59;5115715;28;20459;-57
2022/05/19 11:33:51;;;;;;;0.40;0.30;;;;;;;26.49;18.29;96062.13;5115103;28;20466;-57
2022/05/19 11:36:24;;;;;;;0.40;0.30;;;;;;;26.68;19.90;95960.78;5114873;28;20522;-57
2022/05/19 11:39:00;;;;;;;0.40;0.30;;;;;;;28.78;20.12;96096.72;5114627;28;20459;-56
2022/05/19 11:41:34;;;;;;;0.40;0.30;;;;;;;29.40;19.50;96098.00;5114694;27;20462;-57
2022/05/19 11:44:10;;;;;;;0.40;0.33;;;;;;;28.90;18.16;96090.25;5114422;28;20443;-57
2022/05/19 11:46:47;;;;;;;0.30;0.30;;;;;;;27.84;17.33;96085.69;5114709;28;20525;-57
2022/05/19 11:55:17;;;;;;;0.40;0.30;;;;;;;27.16;17.76;96017.41;5114506;28;20475;-58
2022/05/19 11:57:52;;;;;;;2.70;1.10;;;;;;;27.85;18.84;95996.56;5114371;28;21021;-59
2022/05/19 12:00:24;;;;;;;0.40;0.30;;;;;;;28.00;18.04;96061.06;5122666;28;20470;-58
2022/05/19 12:02:58;;;;;;;0.40;0.30;;;;;;;27.64;18.94;95921.50;5118544;28;20427;-58
2022/05/19 12:05:31;;;;;;;0.40;0.30;;;;;;;28.65;18.89;95937.09;5114815;28;20954;-58
2022/05/19 12:08:12;;;;;;;0.30;0.20;;;;;;;28.51;16.01;96043.28;5114849;28;20428;-58
2022/05/19 12:10:48;;;;;;;0.40;0.30;;;;;;;28.97;19.20;96062.28;5114100;28;20996;-58
2022/05/19 12:13:19;;;;;;;0.50;0.40;;;;;;;28.66;18.16;96017.00;5114248;28;20506;-58
2022/05/19 12:15:55;;;;;;;0.30;0.30;;;;;;;29.75;17.25;96034.81;5114058;28;20554;-58
2022/05/19 12:18:42;;;;;;;0.40;0.30;;;;;;;28.93;16.82;96043.91;5114340;28;20475;-59
2022/05/19 12:21:40;;;;;;;0.40;0.30;;;;;;;28.71;19.18;96061.13;5114157;28;20476;-59